Participated 2 times
Between 1914 and 1925
Marcel Perriere, Switzerland
Tour de France 2026 starts from Barcelona, Spain in

Stats and Facts from
Tour de France.

2026   2025   2024   2023  2022  2021  2020  2019   2018  2017   2016   2015  2014  2013   2012   2011  2010   2009   2008   2007   2006   2005   2004   2003   2002   2001   2000   1999   1998   1997  1996   1995   1994   1993   1992  1991   1990   1989   1988   1987   1986   1985   1984   1983  1982  1981   1980   1979  1978  1977   1976  1975  1974  1973   1972   1971   1970  1969   1968   1967   1966   1965  1964  1963   1962   1961   1960   1959   1958   1957  1956   1955   1954   1953   1952  1951  1950  1949   1948  1947  1939   1938   1937   1936   1935   1934   1933  1932   1931   1930  1929   1928   1927   1926  1925  1924  1923   1922   1921   1920   1919  1914   1913   1912   1911   1910  1909   1908   1907   1906  1905  1904   1903 

Tourstats
Sitemap

After stage 21 - 2025:
 16451 starters.
  5464 different riders.
  689 teams.
  2398 stages.
  470 restdays.
  466506.50 km.
  5925 abandoned riders.

Click map for 1952 route.
Facts from Tour de France 1952 Additional info and images from 1952.
  |   Stages.  |   Stage winners.  |   Days in jerseys.  |   Teams.  |   All riders.  |   All riders by age.  |   All riders from.  |  

  |   Rookies.  |   Withdrawls.  |   Average speed.  |   GC.  |   Polka  |   Green  |   White  |   Summits. (In tour)  |   Miscellaneous.  |  

Stage 11 on July 6th. 1952
Pick a stage:  1  2  3  4  5  6  7  8  9  10  11  12  13  14  15  16  17  18  19  20  21  22  23  

After stage 11:    Fausto Coppi  
  Bourg-d´OisansSestrières | Dist: 182.00km. | Winner: Fausto Coppi

Podium
1  Col de la Croix de Fer Fausto Coppiafter37.00 km.

1  Col du Galibier Fausto Coppiafter115.00 km.

3  Col du Montgenèvre - Briancon Fausto Coppiafter162.00 km.

2  Sestrieres Fausto Coppiafter182.00 km.


Average speed for all riders in stage:  25,474 km./hr.

1
 Fausto Coppi  Italy06h 36' 59"=27,507  km/h

2
 Bernardo Ruíz  Spain06h 44' 08"+  00:07:09 =27,021  km/h

3
 Stan Ockers  Belgium06h 46' 32"+  00:09:33 =26,861  km/h

4  Jean Le Guilly  Ouest-Sud Ouest06h 46' 55"+  00:09:56 =26,836  km/h

5  Gino Bartali  Italy06h 47' 08"+  00:10:09 =26,822  km/h

6  Alexandre Close  Belgium06h 47' 10"+  00:10:11 =26,819  km/h

7  Jean Robic  France06h 48' 23"+  00:11:24 =26,740  km/h

8  Pierre Molineris  Sud Est06h 51' 44"+  00:14:45 =26,522  km/h

9  Gottfried Weilenmann  Switzerland06h 51' 45"+  00:14:46 =26,521  km/h

10  Wout Wagtmans  Holland06h 52' 38"+  00:15:39 =26,464  km/h

11  Alois De Hertog  Belgium06h 52' 48"+  00:15:49 =26,453  km/h

12  Raphaël Geminiani  France06h 54' 27"+  00:17:28 =26,348  km/h

13  Jean-Baptiste Dotto  France06h 54' 28"+  00:17:29 =26,347  km/h

14  Jean Bertaina  Sud Est06h 54' 29"+  00:17:30 =26,346  km/h

15  Andrea Carrea  Italy06h 54' 40"+  00:17:41 =26,334  km/h

16  Eduard Van Ende  Belgium06h 55' 54"+  00:18:55 =26,256  km/h

17  Lucien Lazarides  France06h 56' 47"+  00:19:48 =26,201  km/h

18  Antonin Rolland  France06h 56' 51"+  00:19:52 =26,196  km/h

19  Antonio Gelabert  Spain06h 56' 52"+  00:19:53 =26,195  km/h

20  Gilbert Bauvin  Nord Est-Centre06h 57' 35"+  00:20:36 =26,150  km/h

21  Fiorenzo Magni  Italy06h 57' 47"+  00:20:48 =26,138  km/h

22  Marcel Zelasco  North Africa06h 59' 34"+  00:22:35 =26,027  km/h

23  Adolphe Deledda  Nord Est-Centre06h 59' 49"+  00:22:50 =26,011  km/h

24  Maurice Neyt  Belgium07h 00' 00"+  00:23:01 =26,000  km/h

25  Bernard Gauthier  France07h 00' 39"+  00:23:40 =25,960  km/h

25  Nello Lauredi  France07h 00' 39"+  00:23:40 =25,960  km/h

27  Jan Nolten  Holland07h 01' 58"+  00:24:59 =25,879  km/h

28  Jean Goldschmit  Luxembourg07h 02' 13"+  00:25:14 =25,863  km/h

29  Roger Rossinelli  Nord Est-Centre07h 03' 49"+  00:26:50 =25,766  km/h

30  Vincent Vitetta  Sud Est07h 05' 11"+  00:28:12 =25,683  km/h

31  Carlo Lafranchi  Switzerland07h 05' 24"+  00:28:25 =25,670  km/h

32  Luciano Pezzi  Italy07h 05' 58"+  00:28:59 =25,636  km/h

33  Raoul Remy  France07h 06' 52"+  00:29:53 =25,582  km/h

34  Jacques Vivier  Ouest-Sud Ouest07h 07' 12"+  00:30:13 =25,562  km/h

35  Thijs Roks  Holland07h 07' 23"+  00:30:24 =25,551  km/h

36  Jean Delahaye  Ouest-Sud Ouest07h 07' 37"+  00:30:38 =25,537  km/h

37  Mario Baroni  Italy07h 09' 18"+  00:32:19 =25,437  km/h

38  Lucien Teisseire  France07h 09' 20"+  00:32:21 =25,435  km/h

39  Guy Lapébie  Ouest-Sud Ouest07h 09' 27"+  00:32:28 =25,428  km/h

40  Franco Franchi  Italy07h 09' 32"+  00:32:33 =25,423  km/h

41  André Rosseel  Belgium07h 09' 33"+  00:32:34 =25,422  km/h

42  Georges Decaux  Paris07h 09' 46"+  00:32:47 =25,409  km/h

43  Gerrit Voorting  Holland07h 11' 13"+  00:34:14 =25,324  km/h

44  Siro Bianchi  Sud Est07h 11' 28"+  00:34:29 =25,309  km/h

45  José Serra Gil  Spain07h 12' 18"+  00:35:19 =25,260  km/h

46  Johny Goedert  Luxembourg07h 12' 53"+  00:35:54 =25,226  km/h

47  Jean De Gribaldy  Nord Est-Centre07h 13' 40"+  00:36:41 =25,181  km/h

48  Alfredo Martini  Italy07h 15' 46"+  00:38:47 =25,059  km/h

49  Ahmed Kebaïli  North Africa07h 16' 02"+  00:39:03 =25,044  km/h

50  Giovanni Corrieri  Italy07h 16' 03"+  00:39:04 =25,043  km/h

51  Francisco Masip  Spain07h 16' 03"+  00:39:04 =25,043  km/h

52  Raymond Scardin  Ouest-Sud Ouest07h 16' 03"+  00:39:04 =25,043  km/h

53  Jean Malléjac  Ouest-Sud Ouest07h 16' 04"+  00:39:05 =25,042  km/h

54  José Pérez  Spain07h 16' 06"+  00:39:07 =25,040  km/h

55  Giulio Bresci  Italy07h 16' 07"+  00:39:08 =25,039  km/h

56  Robert Bonnaventure  France07h 16' 07"+  00:39:08 =25,039  km/h

57  Marcel Fernandez  North Africa07h 16' 40"+  00:39:41 =25,008  km/h

58  Andrès Trobat  Spain07h 16' 41"+  00:39:42 =25,007  km/h

59  Rene Rotta  Sud Est07h 16' 48"+  00:39:49 =25,000  km/h

60  Ettore Milano  Italy07h 18' 07"+  00:41:08 =24,925  km/h

61  Fiorenzo Crippa  Italy07h 18' 08"+  00:41:09 =24,924  km/h

62  Roger Decock  Belgium07h 18' 09"+  00:41:10 =24,923  km/h

63  Adolphe Pezzuli  Sud Est07h 18' 09"+  00:41:10 =24,923  km/h

64  Giuseppe Mirando  Sud Est07h 18' 09"+  00:41:10 =24,923  km/h

65  Maurice Quentin  France07h 19' 01"+  00:42:02 =24,874  km/h

66  José Gil Sole  Spain07h 19' 07"+  00:42:08 =24,868  km/h

67  Wim van Est  Holland07h 20' 02"+  00:43:03 =24,816  km/h

68  André Bernard  Ouest-Sud Ouest07h 20' 27"+  00:43:28 =24,793  km/h

69  Pierre Pardoën  Nord Est-Centre07h 20' 30"+  00:43:31 =24,790  km/h

70  Jacques Renaud  Paris07h 21' 17"+  00:44:18 =24,746  km/h

71  Robert Bintz  Luxembourg07h 21' 49"+  00:44:50 =24,716  km/h

72  Paul Giguet  Sud Est07h 22' 03"+  00:45:04 =24,703  km/h

73  Eugène Telotte  Paris07h 22' 03"+  00:45:04 =24,703  km/h

74  Jacques Marinelli  Paris07h 25' 05"+  00:48:06 =24,535  km/h

75  Hans Dekkers  Holland07h 25' 08"+  00:48:09 =24,532  km/h

76  Henk Faanhof  Holland07h 26' 06"+  00:49:07 =24,479  km/h

77  Hein Van Breenen  Holland07h 26' 07"+  00:49:08 =24,478  km/h

78  Vincent Soler  North Africa07h 26' 08"+  00:49:09 =24,477  km/h

79  Settimo Sabbadini  Ouest-Sud Ouest07h 26' 22"+  00:49:23 =24,464  km/h

80  Heinrich Spuhler  Switzerland07h 27' 47"+  00:50:48 =24,387  km/h

81  Walter Diggelmann  Switzerland07h 27' 59"+  00:51:00 =24,376  km/h

82  Henri Paret  North Africa07h 29' 45"+  00:52:46 =24,280  km/h


Withdrawls: 6
 RiderTeamReason
4   Martin Metzger SwitzerlandDid not finish
88   Noel Lajoie Nord Est-CentreDid not finish
123   Abdel-Kader Zaaf North AfricaDid not finish
63   Jean Diederich LuxembourgExceeded time limit
66   Willy Kemp LuxembourgExceeded time limit
120   Gerard Guercy North AfricaExceeded time limit
Todays birthdays.

1889 • Adolphe Landon
1890 • Jules Lebreton
1904 • Julien Grujon
1909 • Erich Metze
1926 • Giovanni Rossi
1928 • Serge Blusson
1928 • Alois Vansteenkiste
1931 • André Dupré
1934 • Alfred Rüegg
1962 • Francisco Espinosa
1962 • Paul Kimmage
1963 • Federico Muñoz
1966 • Andrea Tafi
1971 • Emmanuel Magnien
1973 • Paolo Savoldelli
1985 • Mikhail Ignatyev

 

Optimized for Chrome - Edge
and Opera browsers.